sensor_id;sensor_type;location;lat;lon;timestamp;P1;durP1;ratioP1;P2;durP2;ratioP2
5549;SDS011;2798;42.716;23.256;2022-12-13T00:01:50;5.07;;;3.10;;
5549;SDS011;2798;42.716;23.256;2022-12-13T00:04:16;4.93;;;2.90;;
5549;SDS011;2798;42.716;23.256;2022-12-13T00:06:42;4.53;;;3.97;;
5549;SDS011;2798;42.716;23.256;2022-12-13T00:09:07;4.20;;;3.30;;
5549;SDS011;2798;42.716;23.256;2022-12-13T00:11:33;6.83;;;3.40;;
5549;SDS011;2798;42.716;23.256;2022-12-13T00:13:58;3.90;;;3.50;;
5549;SDS011;2798;42.716;23.256;2022-12-13T00:16:24;2.73;;;2.50;;
5549;SDS011;2798;42.716;23.256;2022-12-13T00:18:50;5.50;;;3.47;;
5549;SDS011;2798;42.716;23.256;2022-12-13T00:21:16;4.10;;;3.33;;
5549;SDS011;2798;42.716;23.256;2022-12-13T00:23:42;4.07;;;3.40;;
5549;SDS011;2798;42.716;23.256;2022-12-13T00:26:11;4.60;;;3.73;;
5549;SDS011;2798;42.716;23.256;2022-12-13T00:28:37;7.00;;;4.30;;
5549;SDS011;2798;42.716;23.256;2022-12-13T00:31:03;3.63;;;3.30;;
5549;SDS011;2798;42.716;23.256;2022-12-13T00:33:29;5.83;;;3.60;;
5549;SDS011;2798;42.716;23.256;2022-12-13T00:35:54;5.30;;;3.93;;
5549;SDS011;2798;42.716;23.256;2022-12-13T00:38:20;3.93;;;3.07;;
5549;SDS011;2798;42.716;23.256;2022-12-13T00:40:45;4.13;;;3.73;;
5549;SDS011;2798;42.716;23.256;2022-12-13T00:43:10;4.63;;;3.60;;
5549;SDS011;2798;42.716;23.256;2022-12-13T00:45:36;4.10;;;3.70;;
5549;SDS011;2798;42.716;23.256;2022-12-13T00:48:03;5.77;;;3.73;;
5549;SDS011;2798;42.716;23.256;2022-12-13T00:50:28;4.30;;;3.50;;
5549;SDS011;2798;42.716;23.256;2022-12-13T00:52:53;5.90;;;4.23;;
5549;SDS011;2798;42.716;23.256;2022-12-13T00:55:18;4.73;;;4.00;;
5549;SDS011;2798;42.716;23.256;2022-12-13T00:57:44;5.63;;;4.23;;
5549;SDS011;2798;42.716;23.256;2022-12-13T01:00:09;5.97;;;4.30;;
5549;SDS011;2798;42.716;23.256;2022-12-13T01:02:34;4.70;;;4.20;;
5549;SDS011;2798;42.716;23.256;2022-12-13T01:05:00;5.13;;;4.00;;
5549;SDS011;2798;42.716;23.256;2022-12-13T01:07:25;5.50;;;4.20;;
5549;SDS011;2798;42.716;23.256;2022-12-13T01:09:50;5.40;;;3.90;;
5549;SDS011;2798;42.716;23.256;2022-12-13T01:12:15;7.80;;;4.10;;
5549;SDS011;2798;42.716;23.256;2022-12-13T01:14:41;5.80;;;4.20;;
5549;SDS011;2798;42.716;23.256;2022-12-13T01:17:07;5.03;;;3.90;;
5549;SDS011;2798;42.716;23.256;2022-12-13T01:19:32;5.53;;;3.87;;
5549;SDS011;2798;42.716;23.256;2022-12-13T01:21:58;4.70;;;3.80;;
5549;SDS011;2798;42.716;23.256;2022-12-13T01:24:24;4.23;;;3.43;;
5549;SDS011;2798;42.716;23.256;2022-12-13T01:26:50;7.17;;;4.57;;
5549;SDS011;2798;42.716;23.256;2022-12-13T01:29:16;4.87;;;3.60;;
5549;SDS011;2798;42.716;23.256;2022-12-13T01:31:42;5.90;;;4.40;;
5549;SDS011;2798;42.716;23.256;2022-12-13T01:34:08;5.10;;;4.13;;
5549;SDS011;2798;42.716;23.256;2022-12-13T01:36:34;6.77;;;4.50;;
5549;SDS011;2798;42.716;23.256;2022-12-13T01:39:00;5.20;;;3.87;;
5549;SDS011;2798;42.716;23.256;2022-12-13T01:41:26;7.63;;;4.90;;
5549;SDS011;2798;42.716;23.256;2022-12-13T01:43:53;5.97;;;4.47;;
5549;SDS011;2798;42.716;23.256;2022-12-13T01:46:18;5.07;;;3.90;;
5549;SDS011;2798;42.716;23.256;2022-12-13T01:48:49;5.33;;;4.50;;
5549;SDS011;2798;42.716;23.256;2022-12-13T01:51:17;5.83;;;4.37;;
5549;SDS011;2798;42.716;23.256;2022-12-13T01:53:43;5.30;;;4.13;;
5549;SDS011;2798;42.716;23.256;2022-12-13T01:56:12;4.70;;;4.20;;
5549;SDS011;2798;42.716;23.256;2022-12-13T01:58:40;7.90;;;4.00;;
5549;SDS011;2798;42.716;23.256;2022-12-13T02:01:05;4.70;;;3.93;;
5549;SDS011;2798;42.716;23.256;2022-12-13T02:03:31;4.87;;;4.00;;
5549;SDS011;2798;42.716;23.256;2022-12-13T02:08:22;5.67;;;3.80;;
5549;SDS011;2798;42.716;23.256;2022-12-13T02:10:48;6.10;;;4.50;;
5549;SDS011;2798;42.716;23.256;2022-12-13T02:13:13;6.73;;;4.03;;
5549;SDS011;2798;42.716;23.256;2022-12-13T02:23:24;5.57;;;4.20;;
5549;SDS011;2798;42.716;23.256;2022-12-13T02:30:58;6.50;;;5.00;;
5549;SDS011;2798;42.716;23.256;2022-12-13T02:33:33;4.97;;;4.10;;
5549;SDS011;2798;42.716;23.256;2022-12-13T02:44:16;6.83;;;4.87;;
5549;SDS011;2798;42.716;23.256;2022-12-13T02:46:45;7.00;;;5.07;;
5549;SDS011;2798;42.716;23.256;2022-12-13T02:49:13;5.80;;;4.30;;
5549;SDS011;2798;42.716;23.256;2022-12-13T02:51:40;5.27;;;3.80;;
5549;SDS011;2798;42.716;23.256;2022-12-13T02:54:06;4.83;;;4.23;;
5549;SDS011;2798;42.716;23.256;2022-12-13T02:56:32;5.40;;;4.33;;
5549;SDS011;2798;42.716;23.256;2022-12-13T02:58:57;5.90;;;4.60;;
5549;SDS011;2798;42.716;23.256;2022-12-13T03:14:30;6.90;;;4.80;;
5549;SDS011;2798;42.716;23.256;2022-12-13T03:16:57;6.40;;;4.80;;
5549;SDS011;2798;42.716;23.256;2022-12-13T03:19:24;6.20;;;4.20;;
5549;SDS011;2798;42.716;23.256;2022-12-13T03:21:50;5.23;;;4.30;;
5549;SDS011;2798;42.716;23.256;2022-12-13T03:24:16;5.87;;;4.87;;
5549;SDS011;2798;42.716;23.256;2022-12-13T03:26:41;4.73;;;4.23;;
5549;SDS011;2798;42.716;23.256;2022-12-13T03:29:07;6.13;;;4.37;;
5549;SDS011;2798;42.716;23.256;2022-12-13T03:31:32;5.17;;;4.47;;
5549;SDS011;2798;42.716;23.256;2022-12-13T03:33:57;4.83;;;4.33;;
5549;SDS011;2798;42.716;23.256;2022-12-13T03:36:23;7.20;;;5.20;;
5549;SDS011;2798;42.716;23.256;2022-12-13T03:38:49;6.80;;;4.83;;
5549;SDS011;2798;42.716;23.256;2022-12-13T03:41:17;5.10;;;4.03;;
5549;SDS011;2798;42.716;23.256;2022-12-13T03:43:43;10.10;;;4.80;;
5549;SDS011;2798;42.716;23.256;2022-12-13T03:46:09;6.80;;;4.60;;
5549;SDS011;2798;42.716;23.256;2022-12-13T03:48:34;6.07;;;4.77;;
5549;SDS011;2798;42.716;23.256;2022-12-13T03:50:59;7.80;;;4.93;;
5549;SDS011;2798;42.716;23.256;2022-12-13T03:53:25;6.83;;;4.67;;
5549;SDS011;2798;42.716;23.256;2022-12-13T03:55:50;5.80;;;4.80;;
5549;SDS011;2798;42.716;23.256;2022-12-13T03:58:16;6.87;;;5.50;;
5549;SDS011;2798;42.716;23.256;2022-12-13T04:00:41;7.97;;;6.07;;
5549;SDS011;2798;42.716;23.256;2022-12-13T04:03:06;6.97;;;5.10;;
5549;SDS011;2798;42.716;23.256;2022-12-13T04:05:31;7.20;;;5.23;;
5549;SDS011;2798;42.716;23.256;2022-12-13T04:07:57;7.10;;;4.73;;
5549;SDS011;2798;42.716;23.256;2022-12-13T04:10:22;6.20;;;4.90;;
5549;SDS011;2798;42.716;23.256;2022-12-13T04:12:48;6.23;;;5.07;;
5549;SDS011;2798;42.716;23.256;2022-12-13T04:15:31;7.20;;;4.40;;
5549;SDS011;2798;42.716;23.256;2022-12-13T04:17:57;6.37;;;4.70;;
5549;SDS011;2798;42.716;23.256;2022-12-13T04:20:22;7.60;;;4.93;;
5549;SDS011;2798;42.716;23.256;2022-12-13T04:22:47;5.70;;;4.90;;
5549;SDS011;2798;42.716;23.256;2022-12-13T04:25:12;7.13;;;4.90;;
5549;SDS011;2798;42.716;23.256;2022-12-13T04:27:38;7.27;;;5.03;;
5549;SDS011;2798;42.716;23.256;2022-12-13T04:30:03;5.50;;;4.53;;
5549;SDS011;2798;42.716;23.256;2022-12-13T04:32:29;7.57;;;5.03;;
5549;SDS011;2798;42.716;23.256;2022-12-13T04:34:54;7.30;;;5.23;;
5549;SDS011;2798;42.716;23.256;2022-12-13T04:37:19;7.37;;;5.17;;
5549;SDS011;2798;42.716;23.256;2022-12-13T04:39:45;6.70;;;4.97;;
5549;SDS011;2798;42.716;23.256;2022-12-13T04:42:14;5.70;;;5.10;;
5549;SDS011;2798;42.716;23.256;2022-12-13T04:44:39;5.97;;;4.83;;
5549;SDS011;2798;42.716;23.256;2022-12-13T04:47:04;6.10;;;4.63;;
5549;SDS011;2798;42.716;23.256;2022-12-13T04:49:30;7.60;;;4.83;;
5549;SDS011;2798;42.716;23.256;2022-12-13T04:51:55;6.87;;;4.60;;
5549;SDS011;2798;42.716;23.256;2022-12-13T04:54:21;6.60;;;4.90;;
5549;SDS011;2798;42.716;23.256;2022-12-13T04:56:46;6.27;;;5.17;;
5549;SDS011;2798;42.716;23.256;2022-12-13T04:59:12;10.17;;;6.10;;
5549;SDS011;2798;42.716;23.256;2022-12-13T05:01:37;8.50;;;5.70;;
5549;SDS011;2798;42.716;23.256;2022-12-13T05:04:02;7.03;;;5.67;;
5549;SDS011;2798;42.716;23.256;2022-12-13T05:06:27;7.47;;;4.93;;
5549;SDS011;2798;42.716;23.256;2022-12-13T05:08:53;7.93;;;4.90;;
5549;SDS011;2798;42.716;23.256;2022-12-13T05:11:18;8.10;;;5.27;;
5549;SDS011;2798;42.716;23.256;2022-12-13T05:13:43;6.93;;;5.20;;
5549;SDS011;2798;42.716;23.256;2022-12-13T05:16:09;7.10;;;5.07;;
5549;SDS011;2798;42.716;23.256;2022-12-13T05:18:34;8.63;;;5.80;;
5549;SDS011;2798;42.716;23.256;2022-12-13T05:21:03;8.17;;;5.30;;
5549;SDS011;2798;42.716;23.256;2022-12-13T05:23:29;7.70;;;5.40;;
5549;SDS011;2798;42.716;23.256;2022-12-13T05:25:55;6.67;;;5.10;;
5549;SDS011;2798;42.716;23.256;2022-12-13T05:28:21;8.13;;;5.53;;
5549;SDS011;2798;42.716;23.256;2022-12-13T05:30:49;9.40;;;5.60;;
5549;SDS011;2798;42.716;23.256;2022-12-13T05:33:15;9.47;;;5.43;;
5549;SDS011;2798;42.716;23.256;2022-12-13T05:35:40;6.90;;;5.50;;
5549;SDS011;2798;42.716;23.256;2022-12-13T05:38:05;7.73;;;5.77;;
5549;SDS011;2798;42.716;23.256;2022-12-13T05:40:31;7.30;;;5.30;;
5549;SDS011;2798;42.716;23.256;2022-12-13T05:42:56;8.53;;;5.80;;
5549;SDS011;2798;42.716;23.256;2022-12-13T05:45:22;8.20;;;6.30;;
5549;SDS011;2798;42.716;23.256;2022-12-13T05:47:47;8.93;;;6.00;;
5549;SDS011;2798;42.716;23.256;2022-12-13T05:50:13;7.27;;;5.43;;
5549;SDS011;2798;42.716;23.256;2022-12-13T05:52:38;9.43;;;7.07;;
5549;SDS011;2798;42.716;23.256;2022-12-13T05:55:04;9.83;;;6.70;;
5549;SDS011;2798;42.716;23.256;2022-12-13T05:57:29;7.40;;;5.90;;
5549;SDS011;2798;42.716;23.256;2022-12-13T05:59:54;8.80;;;6.27;;
5549;SDS011;2798;42.716;23.256;2022-12-13T06:02:20;8.90;;;6.57;;
5549;SDS011;2798;42.716;23.256;2022-12-13T06:04:45;7.80;;;5.90;;
5549;SDS011;2798;42.716;23.256;2022-12-13T06:07:11;9.53;;;5.73;;
5549;SDS011;2798;42.716;23.256;2022-12-13T06:09:36;9.47;;;6.10;;
5549;SDS011;2798;42.716;23.256;2022-12-13T06:12:01;8.90;;;7.07;;
5549;SDS011;2798;42.716;23.256;2022-12-13T06:14:27;9.20;;;6.97;;
5549;SDS011;2798;42.716;23.256;2022-12-13T06:16:52;8.50;;;6.27;;
5549;SDS011;2798;42.716;23.256;2022-12-13T06:19:18;9.17;;;6.20;;
5549;SDS011;2798;42.716;23.256;2022-12-13T06:21:43;7.97;;;5.80;;
5549;SDS011;2798;42.716;23.256;2022-12-13T06:24:09;7.37;;;6.00;;
5549;SDS011;2798;42.716;23.256;2022-12-13T06:26:34;7.70;;;5.70;;
5549;SDS011;2798;42.716;23.256;2022-12-13T06:28:59;8.47;;;5.63;;
5549;SDS011;2798;42.716;23.256;2022-12-13T06:31:24;11.23;;;6.17;;
5549;SDS011;2798;42.716;23.256;2022-12-13T06:33:50;8.07;;;7.10;;
5549;SDS011;2798;42.716;23.256;2022-12-13T06:36:15;10.27;;;6.80;;
5549;SDS011;2798;42.716;23.256;2022-12-13T06:38:40;8.70;;;6.47;;
5549;SDS011;2798;42.716;23.256;2022-12-13T06:41:07;8.33;;;6.23;;
5549;SDS011;2798;42.716;23.256;2022-12-13T06:43:33;9.23;;;6.30;;
5549;SDS011;2798;42.716;23.256;2022-12-13T06:45:58;9.13;;;6.80;;
5549;SDS011;2798;42.716;23.256;2022-12-13T06:48:23;8.33;;;6.17;;
5549;SDS011;2798;42.716;23.256;2022-12-13T06:50:48;9.07;;;6.73;;
5549;SDS011;2798;42.716;23.256;2022-12-13T06:53:14;9.13;;;6.77;;
5549;SDS011;2798;42.716;23.256;2022-12-13T06:55:39;8.67;;;6.83;;
5549;SDS011;2798;42.716;23.256;2022-12-13T06:58:04;9.20;;;6.93;;
5549;SDS011;2798;42.716;23.256;2022-12-13T07:00:30;8.93;;;6.37;;
5549;SDS011;2798;42.716;23.256;2022-12-13T07:02:55;9.53;;;6.70;;
5549;SDS011;2798;42.716;23.256;2022-12-13T07:05:21;9.77;;;6.73;;
5549;SDS011;2798;42.716;23.256;2022-12-13T07:07:46;10.40;;;6.50;;
5549;SDS011;2798;42.716;23.256;2022-12-13T07:10:11;10.70;;;7.00;;
5549;SDS011;2798;42.716;23.256;2022-12-13T07:12:37;8.77;;;6.63;;
5549;SDS011;2798;42.716;23.256;2022-12-13T07:15:02;7.87;;;6.40;;
5549;SDS011;2798;42.716;23.256;2022-12-13T07:17:27;11.67;;;7.83;;
5549;SDS011;2798;42.716;23.256;2022-12-13T07:19:53;8.87;;;6.97;;
5549;SDS011;2798;42.716;23.256;2022-12-13T07:22:18;10.17;;;6.90;;
5549;SDS011;2798;42.716;23.256;2022-12-13T07:24:43;10.03;;;7.33;;
5549;SDS011;2798;42.716;23.256;2022-12-13T07:27:09;11.40;;;7.43;;
5549;SDS011;2798;42.716;23.256;2022-12-13T07:29:34;7.93;;;6.40;;
5549;SDS011;2798;42.716;23.256;2022-12-13T07:31:59;9.17;;;6.37;;
5549;SDS011;2798;42.716;23.256;2022-12-13T07:34:25;10.23;;;7.43;;
5549;SDS011;2798;42.716;23.256;2022-12-13T07:36:50;10.17;;;7.30;;
5549;SDS011;2798;42.716;23.256;2022-12-13T07:39:15;10.27;;;6.40;;
5549;SDS011;2798;42.716;23.256;2022-12-13T07:41:40;11.20;;;7.67;;
5549;SDS011;2798;42.716;23.256;2022-12-13T07:44:05;10.63;;;6.70;;
5549;SDS011;2798;42.716;23.256;2022-12-13T07:46:31;10.90;;;7.67;;
5549;SDS011;2798;42.716;23.256;2022-12-13T07:48:56;10.60;;;7.07;;
5549;SDS011;2798;42.716;23.256;2022-12-13T07:51:21;8.83;;;5.90;;
5549;SDS011;2798;42.716;23.256;2022-12-13T07:53:46;10.50;;;7.00;;
5549;SDS011;2798;42.716;23.256;2022-12-13T07:56:12;11.50;;;7.77;;
5549;SDS011;2798;42.716;23.256;2022-12-13T07:58:37;11.73;;;8.07;;
5549;SDS011;2798;42.716;23.256;2022-12-13T08:01:04;12.50;;;8.20;;
5549;SDS011;2798;42.716;23.256;2022-12-13T08:03:29;13.53;;;7.60;;
5549;SDS011;2798;42.716;23.256;2022-12-13T08:06:01;11.07;;;7.90;;
5549;SDS011;2798;42.716;23.256;2022-12-13T08:08:27;11.97;;;7.83;;
5549;SDS011;2798;42.716;23.256;2022-12-13T08:10:52;11.00;;;7.53;;
5549;SDS011;2798;42.716;23.256;2022-12-13T08:13:17;9.50;;;6.97;;
5549;SDS011;2798;42.716;23.256;2022-12-13T08:15:42;9.00;;;7.27;;
5549;SDS011;2798;42.716;23.256;2022-12-13T08:18:08;10.63;;;7.50;;
5549;SDS011;2798;42.716;23.256;2022-12-13T08:20:33;10.70;;;7.20;;
5549;SDS011;2798;42.716;23.256;2022-12-13T08:22:58;9.87;;;7.00;;
5549;SDS011;2798;42.716;23.256;2022-12-13T08:25:24;9.90;;;7.27;;
5549;SDS011;2798;42.716;23.256;2022-12-13T08:27:49;11.27;;;7.77;;
5549;SDS011;2798;42.716;23.256;2022-12-13T08:30:15;10.33;;;7.27;;
5549;SDS011;2798;42.716;23.256;2022-12-13T08:32:40;12.20;;;7.80;;
5549;SDS011;2798;42.716;23.256;2022-12-13T08:35:05;10.67;;;7.20;;
5549;SDS011;2798;42.716;23.256;2022-12-13T08:37:31;12.00;;;7.37;;
5549;SDS011;2798;42.716;23.256;2022-12-13T08:39:56;11.70;;;7.03;;
5549;SDS011;2798;42.716;23.256;2022-12-13T08:42:21;11.63;;;7.10;;
5549;SDS011;2798;42.716;23.256;2022-12-13T08:44:49;9.93;;;6.87;;
5549;SDS011;2798;42.716;23.256;2022-12-13T08:47:15;8.50;;;6.00;;
5549;SDS011;2798;42.716;23.256;2022-12-13T08:49:40;9.10;;;7.33;;
5549;SDS011;2798;42.716;23.256;2022-12-13T08:52:05;9.83;;;6.83;;
5549;SDS011;2798;42.716;23.256;2022-12-13T08:54:31;9.27;;;6.50;;
5549;SDS011;2798;42.716;23.256;2022-12-13T08:56:57;10.57;;;6.80;;
5549;SDS011;2798;42.716;23.256;2022-12-13T08:59:22;8.53;;;6.30;;
5549;SDS011;2798;42.716;23.256;2022-12-13T09:01:49;10.97;;;6.07;;
5549;SDS011;2798;42.716;23.256;2022-12-13T09:04:14;8.30;;;6.13;;
5549;SDS011;2798;42.716;23.256;2022-12-13T09:06:40;8.97;;;6.17;;
5549;SDS011;2798;42.716;23.256;2022-12-13T09:09:06;10.03;;;6.40;;
5549;SDS011;2798;42.716;23.256;2022-12-13T09:11:31;5.40;;;4.80;;
5549;SDS011;2798;42.716;23.256;2022-12-13T09:13:57;7.00;;;5.87;;
5549;SDS011;2798;42.716;23.256;2022-12-13T09:16:22;8.83;;;5.93;;
5549;SDS011;2798;42.716;23.256;2022-12-13T09:18:53;7.90;;;5.40;;
5549;SDS011;2798;42.716;23.256;2022-12-13T09:21:18;9.03;;;6.20;;
5549;SDS011;2798;42.716;23.256;2022-12-13T09:23:44;7.77;;;5.37;;
5549;SDS011;2798;42.716;23.256;2022-12-13T09:26:13;6.10;;;5.00;;
5549;SDS011;2798;42.716;23.256;2022-12-13T09:28:39;8.70;;;6.63;;
5549;SDS011;2798;42.716;23.256;2022-12-13T09:33:32;9.60;;;6.43;;
5549;SDS011;2798;42.716;23.256;2022-12-13T09:35:58;8.73;;;6.03;;
5549;SDS011;2798;42.716;23.256;2022-12-13T09:38:23;8.90;;;6.20;;
5549;SDS011;2798;42.716;23.256;2022-12-13T09:40:48;8.03;;;5.67;;
5549;SDS011;2798;42.716;23.256;2022-12-13T09:43:18;7.70;;;5.80;;
5549;SDS011;2798;42.716;23.256;2022-12-13T09:45:45;9.63;;;6.00;;
5549;SDS011;2798;42.716;23.256;2022-12-13T09:48:15;8.67;;;5.87;;
5549;SDS011;2798;42.716;23.256;2022-12-13T09:50:41;8.10;;;6.20;;
5549;SDS011;2798;42.716;23.256;2022-12-13T09:53:06;7.47;;;5.67;;
5549;SDS011;2798;42.716;23.256;2022-12-13T09:55:37;7.03;;;5.07;;
5549;SDS011;2798;42.716;23.256;2022-12-13T10:00:47;8.70;;;5.83;;
5549;SDS011;2798;42.716;23.256;2022-12-13T10:03:14;7.57;;;5.20;;
5549;SDS011;2798;42.716;23.256;2022-12-13T10:05:40;7.90;;;5.50;;
5549;SDS011;2798;42.716;23.256;2022-12-13T10:10:33;7.23;;;4.97;;
5549;SDS011;2798;42.716;23.256;2022-12-13T10:13:09;8.33;;;6.27;;
5549;SDS011;2798;42.716;23.256;2022-12-13T10:15:37;8.60;;;5.07;;
5549;SDS011;2798;42.716;23.256;2022-12-13T10:18:06;8.60;;;6.20;;
5549;SDS011;2798;42.716;23.256;2022-12-13T10:20:33;7.03;;;5.77;;
5549;SDS011;2798;42.716;23.256;2022-12-13T10:22:59;7.70;;;5.43;;
5549;SDS011;2798;42.716;23.256;2022-12-13T10:25:42;6.40;;;5.77;;
5549;SDS011;2798;42.716;23.256;2022-12-13T10:28:08;6.07;;;4.90;;
5549;SDS011;2798;42.716;23.256;2022-12-13T10:30:38;10.27;;;6.00;;
5549;SDS011;2798;42.716;23.256;2022-12-13T10:33:04;7.00;;;5.17;;
5549;SDS011;2798;42.716;23.256;2022-12-13T10:37:58;6.10;;;5.20;;
5549;SDS011;2798;42.716;23.256;2022-12-13T10:40:30;6.17;;;4.43;;
5549;SDS011;2798;42.716;23.256;2022-12-13T10:43:10;8.93;;;4.60;;
5549;SDS011;2798;42.716;23.256;2022-12-13T10:45:35;5.30;;;4.07;;
5549;SDS011;2798;42.716;23.256;2022-12-13T10:48:01;4.77;;;3.73;;
5549;SDS011;2798;42.716;23.256;2022-12-13T10:50:27;4.53;;;3.77;;
5549;SDS011;2798;42.716;23.256;2022-12-13T10:52:53;6.10;;;4.57;;
5549;SDS011;2798;42.716;23.256;2022-12-13T10:55:26;6.43;;;4.60;;
5549;SDS011;2798;42.716;23.256;2022-12-13T10:57:53;5.00;;;4.40;;
5549;SDS011;2798;42.716;23.256;2022-12-13T11:00:29;6.07;;;4.70;;
5549;SDS011;2798;42.716;23.256;2022-12-13T11:02:55;6.33;;;4.83;;
5549;SDS011;2798;42.716;23.256;2022-12-13T11:05:27;4.83;;;4.20;;
5549;SDS011;2798;42.716;23.256;2022-12-13T11:07:53;5.67;;;4.40;;
5549;SDS011;2798;42.716;23.256;2022-12-13T11:10:25;6.20;;;4.50;;
5549;SDS011;2798;42.716;23.256;2022-12-13T11:12:52;7.83;;;5.53;;
5549;SDS011;2798;42.716;23.256;2022-12-13T11:15:22;6.50;;;4.60;;
5549;SDS011;2798;42.716;23.256;2022-12-13T11:17:54;5.63;;;4.47;;
5549;SDS011;2798;42.716;23.256;2022-12-13T11:20:21;5.57;;;4.30;;
5549;SDS011;2798;42.716;23.256;2022-12-13T11:22:47;5.90;;;4.40;;
5549;SDS011;2798;42.716;23.256;2022-12-13T11:25:20;6.13;;;4.77;;
5549;SDS011;2798;42.716;23.256;2022-12-13T11:30:17;7.37;;;5.13;;
5549;SDS011;2798;42.716;23.256;2022-12-13T11:33:02;6.70;;;4.67;;
5549;SDS011;2798;42.716;23.256;2022-12-13T11:35:41;5.03;;;4.10;;
5549;SDS011;2798;42.716;23.256;2022-12-13T11:40:43;5.73;;;4.50;;
5549;SDS011;2798;42.716;23.256;2022-12-13T11:45:47;6.17;;;4.63;;
5549;SDS011;2798;42.716;23.256;2022-12-13T11:48:20;7.00;;;4.97;;
5549;SDS011;2798;42.716;23.256;2022-12-13T11:50:46;5.77;;;4.20;;
5549;SDS011;2798;42.716;23.256;2022-12-13T11:53:26;6.00;;;5.00;;
5549;SDS011;2798;42.716;23.256;2022-12-13T11:58:40;6.70;;;4.77;;
5549;SDS011;2798;42.716;23.256;2022-12-13T12:01:11;5.50;;;4.90;;
5549;SDS011;2798;42.716;23.256;2022-12-13T12:03:48;5.97;;;4.30;;
5549;SDS011;2798;42.716;23.256;2022-12-13T12:06:20;5.37;;;4.87;;
5549;SDS011;2798;42.716;23.256;2022-12-13T12:08:57;5.50;;;4.60;;
5549;SDS011;2798;42.716;23.256;2022-12-13T12:16:42;5.87;;;4.73;;
5549;SDS011;2798;42.716;23.256;2022-12-13T12:19:12;6.77;;;4.80;;
5549;SDS011;2798;42.716;23.256;2022-12-13T12:21:47;5.60;;;4.13;;
5549;SDS011;2798;42.716;23.256;2022-12-13T12:26:46;5.80;;;4.83;;
5549;SDS011;2798;42.716;23.256;2022-12-13T12:29:21;8.37;;;4.67;;
5549;SDS011;2798;42.716;23.256;2022-12-13T12:31:54;7.63;;;4.90;;
5549;SDS011;2798;42.716;23.256;2022-12-13T12:34:26;6.50;;;4.80;;
5549;SDS011;2798;42.716;23.256;2022-12-13T12:37:04;4.90;;;4.37;;
5549;SDS011;2798;42.716;23.256;2022-12-13T13:00:29;6.43;;;4.80;;
5549;SDS011;2798;42.716;23.256;2022-12-13T13:06:00;6.50;;;4.07;;
5549;SDS011;2798;42.716;23.256;2022-12-13T13:10:55;5.57;;;4.77;;
5549;SDS011;2798;42.716;23.256;2022-12-13T13:16:26;6.13;;;4.30;;
5549;SDS011;2798;42.716;23.256;2022-12-13T13:18:55;4.37;;;3.93;;
5549;SDS011;2798;42.716;23.256;2022-12-13T13:21:39;8.47;;;4.03;;
5549;SDS011;2798;42.716;23.256;2022-12-13T13:26:37;6.20;;;4.53;;
5549;SDS011;2798;42.716;23.256;2022-12-13T13:31:56;8.27;;;5.83;;
5549;SDS011;2798;42.716;23.256;2022-12-13T13:34:23;8.60;;;4.77;;
5549;SDS011;2798;42.716;23.256;2022-12-13T13:36:50;6.40;;;5.00;;
5549;SDS011;2798;42.716;23.256;2022-12-13T13:39:37;16.93;;;5.10;;
5549;SDS011;2798;42.716;23.256;2022-12-13T13:47:14;12.73;;;5.10;;
5549;SDS011;2798;42.716;23.256;2022-12-13T13:52:18;8.90;;;5.87;;
5549;SDS011;2798;42.716;23.256;2022-12-13T14:00:13;6.73;;;5.17;;
5549;SDS011;2798;42.716;23.256;2022-12-13T14:05:35;8.37;;;5.07;;
5549;SDS011;2798;42.716;23.256;2022-12-13T14:08:12;6.67;;;5.60;;
5549;SDS011;2798;42.716;23.256;2022-12-13T14:15:55;6.37;;;4.97;;
5549;SDS011;2798;42.716;23.256;2022-12-13T14:18:36;8.47;;;5.03;;
5549;SDS011;2798;42.716;23.256;2022-12-13T14:24:15;6.70;;;5.30;;
5549;SDS011;2798;42.716;23.256;2022-12-13T14:26:44;7.33;;;5.10;;
5549;SDS011;2798;42.716;23.256;2022-12-13T14:29:16;8.13;;;6.23;;
5549;SDS011;2798;42.716;23.256;2022-12-13T14:31:42;10.03;;;5.60;;
5549;SDS011;2798;42.716;23.256;2022-12-13T14:34:22;7.97;;;5.80;;
5549;SDS011;2798;42.716;23.256;2022-12-13T14:37:34;11.13;;;6.57;;
5549;SDS011;2798;42.716;23.256;2022-12-13T14:39:33;11.20;;;7.63;;
5549;SDS011;2798;42.716;23.256;2022-12-13T14:42:00;14.10;;;7.63;;
5549;SDS011;2798;42.716;23.256;2022-12-13T14:44:30;9.33;;;6.93;;
5549;SDS011;2798;42.716;23.256;2022-12-13T14:46:57;10.73;;;7.20;;
5549;SDS011;2798;42.716;23.256;2022-12-13T14:49:23;16.43;;;8.00;;
5549;SDS011;2798;42.716;23.256;2022-12-13T14:51:52;10.07;;;6.63;;
5549;SDS011;2798;42.716;23.256;2022-12-13T14:54:24;11.10;;;8.07;;
5549;SDS011;2798;42.716;23.256;2022-12-13T14:56:57;10.43;;;7.40;;
5549;SDS011;2798;42.716;23.256;2022-12-13T14:59:23;11.40;;;8.20;;
5549;SDS011;2798;42.716;23.256;2022-12-13T15:01:59;10.97;;;7.77;;
5549;SDS011;2798;42.716;23.256;2022-12-13T15:04:28;10.70;;;7.80;;
5549;SDS011;2798;42.716;23.256;2022-12-13T15:06:55;13.33;;;8.63;;
5549;SDS011;2798;42.716;23.256;2022-12-13T15:09:21;12.77;;;9.10;;
5549;SDS011;2798;42.716;23.256;2022-12-13T15:11:47;13.50;;;9.77;;
5549;SDS011;2798;42.716;23.256;2022-12-13T15:14:13;14.53;;;10.50;;
5549;SDS011;2798;42.716;23.256;2022-12-13T15:16:39;17.23;;;11.03;;
5549;SDS011;2798;42.716;23.256;2022-12-13T15:19:14;18.07;;;11.90;;
5549;SDS011;2798;42.716;23.256;2022-12-13T15:21:40;18.50;;;11.83;;
5549;SDS011;2798;42.716;23.256;2022-12-13T15:24:05;18.47;;;11.40;;
5549;SDS011;2798;42.716;23.256;2022-12-13T15:26:31;17.40;;;12.07;;
5549;SDS011;2798;42.716;23.256;2022-12-13T15:28:58;19.57;;;11.67;;
5549;SDS011;2798;42.716;23.256;2022-12-13T15:31:23;18.10;;;11.13;;
5549;SDS011;2798;42.716;23.256;2022-12-13T15:33:49;17.70;;;12.07;;
5549;SDS011;2798;42.716;23.256;2022-12-13T15:41:19;19.03;;;12.23;;
5549;SDS011;2798;42.716;23.256;2022-12-13T15:43:45;18.17;;;11.33;;
5549;SDS011;2798;42.716;23.256;2022-12-13T15:46:11;22.10;;;12.43;;
5549;SDS011;2798;42.716;23.256;2022-12-13T15:48:37;19.13;;;12.47;;
5549;SDS011;2798;42.716;23.256;2022-12-13T15:51:22;17.80;;;11.63;;
5549;SDS011;2798;42.716;23.256;2022-12-13T15:54:00;20.13;;;12.27;;
5549;SDS011;2798;42.716;23.256;2022-12-13T15:56:27;23.60;;;12.60;;
5549;SDS011;2798;42.716;23.256;2022-12-13T15:58:54;21.27;;;12.37;;
5549;SDS011;2798;42.716;23.256;2022-12-13T16:01:32;22.73;;;12.30;;
5549;SDS011;2798;42.716;23.256;2022-12-13T16:03:58;21.50;;;12.87;;
5549;SDS011;2798;42.716;23.256;2022-12-13T16:06:27;20.97;;;13.20;;
5549;SDS011;2798;42.716;23.256;2022-12-13T16:08:55;23.57;;;13.13;;
5549;SDS011;2798;42.716;23.256;2022-12-13T16:11:29;22.87;;;14.77;;
5549;SDS011;2798;42.716;23.256;2022-12-13T16:14:21;28.07;;;16.20;;
5549;SDS011;2798;42.716;23.256;2022-12-13T16:16:40;26.97;;;16.30;;
5549;SDS011;2798;42.716;23.256;2022-12-13T16:19:11;23.63;;;15.00;;
5549;SDS011;2798;42.716;23.256;2022-12-13T16:21:36;29.10;;;16.97;;
5549;SDS011;2798;42.716;23.256;2022-12-13T16:24:02;30.50;;;17.87;;
5549;SDS011;2798;42.716;23.256;2022-12-13T16:26:27;31.77;;;17.40;;
5549;SDS011;2798;42.716;23.256;2022-12-13T16:28:53;31.20;;;18.10;;
5549;SDS011;2798;42.716;23.256;2022-12-13T16:31:23;33.40;;;18.77;;
5549;SDS011;2798;42.716;23.256;2022-12-13T16:33:49;31.30;;;17.60;;
5549;SDS011;2798;42.716;23.256;2022-12-13T16:36:15;38.13;;;20.53;;
5549;SDS011;2798;42.716;23.256;2022-12-13T16:38:41;31.60;;;19.00;;
5549;SDS011;2798;42.716;23.256;2022-12-13T16:41:06;32.00;;;18.53;;
5549;SDS011;2798;42.716;23.256;2022-12-13T16:43:32;37.53;;;19.87;;
5549;SDS011;2798;42.716;23.256;2022-12-13T16:45:58;32.87;;;18.10;;
5549;SDS011;2798;42.716;23.256;2022-12-13T16:48:24;32.10;;;17.37;;
5549;SDS011;2798;42.716;23.256;2022-12-13T16:50:49;31.30;;;18.07;;
5549;SDS011;2798;42.716;23.256;2022-12-13T16:53:15;29.50;;;18.57;;
5549;SDS011;2798;42.716;23.256;2022-12-13T16:55:42;29.77;;;18.10;;
5549;SDS011;2798;42.716;23.256;2022-12-13T16:58:13;36.77;;;20.23;;
5549;SDS011;2798;42.716;23.256;2022-12-13T17:00:39;30.40;;;18.23;;
5549;SDS011;2798;42.716;23.256;2022-12-13T17:03:05;26.87;;;16.93;;
5549;SDS011;2798;42.716;23.256;2022-12-13T17:05:31;31.40;;;19.23;;